Tropical Cyclones
[Index]
Main Index Home Page Stock Weather Photos Extreme Storms Discussion Storm News and Storm Chasing Reports Tropical Cyclones / Hurricanes / Typhoons Weather Data and Links Wild Fires / Bushfires Weather Observation Techniques Weather Picture Catalogue Tornado Pictures and Reports Stock Video Footage and DVDs for sale
Season 1998-1999 Tropical Cyclone HALI Track Map
Season 1998-1999 Summaries (Operational Data): [AU] [SIO] [SPAC] [SH]
<<- Previous TC | 1998-1999 Season | Next TC ->>

click for intensity scale information  Lat/long Grid: Show Hide

 Date Labels: Show Hide

Operational Tropical Cyclone Data : JTWC Advisories

Name: HALI
Number: 9927

11 Mar 1999 12:00 UTC to 19 Mar 1999 00:00 UTC

    date/time    lat    long     hPa   cat  kts
1999-03-11 12   18.0   154.5W   1002         25          
1999-03-11 18   19.0   156.0W   1002         30          
1999-03-12 00   19.4   158.5W   1002         30          
1999-03-12 06   19.4   159.0W   1000         30          
1999-03-12 12   19.5   159.0W   1000         30          
1999-03-12 18   20.2   159.1W    997    1    35          
1999-03-13 00   20.3   160.3W    987    1    45          
1999-03-13 06   20.6   161.0W    987    1    45          
1999-03-13 12   20.4   161.3W    987    2    50          
1999-03-13 18   20.4   161.7W    985    2    50          
1999-03-14 00   20.3   162.3W    985    2    50          
1999-03-14 06   20.2   162.6W    980    2    60          
1999-03-14 12   20.2   162.9W    980    2    60          
1999-03-14 18   20.8   163.3W    980    2    60          
1999-03-15 00   20.5   163.8W    980    2    60          
1999-03-15 06   21.0   164.2W    980    2    60          
1999-03-15 12   21.1   164.7W    980    2    60          
1999-03-15 18   21.4   164.6W    980    2    60          
1999-03-16 00   21.9   164.2W    975    3    65          
1999-03-16 06   22.4   164.0W    975    3    65          
1999-03-16 12   22.8   163.8W    980    2    60          
1999-03-16 18   23.2   163.7W    980    2    55          
1999-03-17 00   23.7   163.9W    980    2    55          
1999-03-17 06   24.0   163.9W    985    2    50          
1999-03-17 12   24.2   164.3W    987    1    45          
1999-03-17 18   24.4   162.9W    990    1    40          
1999-03-18 00   24.6   162.3W    995    1    40          
1999-03-18 06   24.5   161.7W    995    1    35          
1999-03-18 12   24.5   161.1W    997    1    35          
1999-03-18 18   24.8   160.3W    997    1    35          
1999-03-19 00   25.0   159.4W    997    1    35          
Winds are 10-min average.

Tropical cyclone tracks developed by Michael Bath using operational warnings and advisories and Google Maps.


[Australian Severe Weather index] [Copyright Notice] [Email Contacts] [Search This Site] [Privacy Policy]
Document: tropical_cyclone_hali.htm Updated: 4 September 2016